Sinking Spring, Ohio
Current Conditions -  °F | °C
As of 4:14 AM on Friday 24 Oct 2014 (Local Time) from KRZT Reporting Station
Clear Clear  
Wind Chill: 30°   Ceiling: Unl
Heat Index: 34°   Visibility: 7mi
Dew Point: 34°   Wind: 5mph
Humidity: 100%   Direction: 270°W
Pressure: 30.12"   Gusts: NA
Location:  39.07°N, 83.39°W
Report Text: KRZT 240814Z AUTO 27004KT 7SM CLR 01/01 A3012 RMK AO2
Loading
Personal Weather Stations






























Interactive Weather Map
Tropical Storm Tracking
New forecast layout! Learn more

10-Day Weather Forecast

Advertisements
Track Severe Weather on mobile